createdAt,value
2023-01-03T00:02:10.753Z,11.35
2023-01-03T00:04:37.461Z,9.98
2023-01-03T00:07:04.063Z,10.50
2023-01-03T00:09:30.454Z,10.93
2023-01-03T00:12:15.484Z,9.80
2023-01-03T00:14:44.035Z,11.23
2023-01-03T00:17:12.326Z,9.82
2023-01-03T00:19:42.266Z,10.18
2023-01-03T00:22:09.835Z,10.18
2023-01-03T00:24:36.408Z,10.90
2023-01-03T00:27:03.313Z,10.05
2023-01-03T00:29:29.871Z,10.10
2023-01-03T00:31:56.414Z,9.60
2023-01-03T00:34:23.020Z,10.80
2023-01-03T00:36:49.838Z,11.23
2023-01-03T00:39:16.635Z,10.15
2023-01-03T00:41:43.242Z,9.75
2023-01-03T00:44:09.801Z,10.57
2023-01-03T00:46:36.578Z,10.45
2023-01-03T00:49:04.380Z,9.60
2023-01-03T00:51:34.116Z,9.85
2023-01-03T00:54:02.332Z,10.18
2023-01-03T00:56:34.128Z,9.63
2023-01-03T00:59:01.238Z,10.00
2023-01-03T01:01:29.568Z,9.93
2023-01-03T01:04:00.136Z,9.65
2023-01-03T01:06:32.136Z,10.25
2023-01-03T01:09:00.034Z,10.23
2023-01-03T01:11:27.338Z,9.93
2023-01-03T01:13:54.570Z,10.43
2023-01-03T01:16:25.127Z,9.18
2023-01-03T01:18:53.825Z,10.38
2023-01-03T01:21:26.221Z,11.07
2023-01-03T01:23:53.219Z,10.23
2023-01-03T01:26:22.898Z,10.55
2023-01-03T01:28:50.674Z,10.20
2023-01-03T01:31:20.480Z,10.43
2023-01-03T01:33:47.030Z,10.48
2023-01-03T01:36:18.609Z,10.82
2023-01-03T01:38:46.708Z,10.48
2023-01-03T01:41:16.218Z,10.45
2023-01-03T01:44:15.514Z,10.35
2023-01-03T01:46:42.873Z,10.35
2023-01-03T01:49:16.791Z,10.05
2023-01-03T01:51:43.470Z,10.75
2023-01-03T01:54:10.987Z,10.98
2023-01-03T01:56:46.102Z,10.23
2023-01-03T01:59:13.602Z,10.35
2023-01-03T02:01:42.474Z,10.02
2023-01-03T02:04:24.550Z,10.65
2023-01-03T02:06:52.206Z,11.52
2023-01-03T02:09:18.664Z,10.30
2023-01-03T02:12:15.683Z,10.55
2023-01-03T02:14:48.375Z,11.23
2023-01-03T02:17:17.715Z,10.90
2023-01-03T02:20:09.348Z,10.93
2023-01-03T02:22:36.175Z,10.98
2023-01-03T02:25:08.526Z,11.77
2023-01-03T02:27:47.060Z,12.10
2023-01-03T02:30:34.897Z,12.20
2023-01-03T02:33:16.196Z,11.40
2023-01-03T02:36:11.685Z,13.13
2023-01-03T02:39:03.982Z,12.27
2023-01-03T02:41:39.622Z,12.52
2023-01-03T02:44:14.362Z,12.27
2023-01-03T02:46:47.215Z,14.20
2023-01-03T02:49:18.693Z,13.10
2023-01-03T02:51:50.022Z,12.30
2023-01-03T02:54:25.051Z,11.88
2023-01-03T02:56:59.584Z,13.23
2023-01-03T02:59:51.986Z,12.02
2023-01-03T03:02:22.035Z,12.65
2023-01-03T03:07:25.117Z,12.38
2023-01-03T03:10:10.261Z,12.00
2023-01-03T03:12:58.911Z,12.50
2023-01-03T03:15:33.321Z,12.10
2023-01-03T03:18:05.944Z,13.20
2023-01-03T03:20:50.892Z,12.15
2023-01-03T03:23:41.364Z,12.20
2023-01-03T03:26:14.991Z,12.27
2023-01-03T03:28:45.767Z,12.40
2023-01-03T03:31:12.213Z,13.38
2023-01-03T03:33:49.110Z,12.55
2023-01-03T03:36:23.388Z,13.95
2023-01-03T03:38:50.516Z,12.57
2023-01-03T03:41:54.562Z,14.05
2023-01-03T03:44:54.567Z,13.27
2023-01-03T03:47:27.019Z,13.93
2023-01-03T03:49:56.610Z,12.57
2023-01-03T03:52:28.425Z,13.35
2023-01-03T03:55:06.072Z,13.63
2023-01-03T03:57:37.314Z,12.60
2023-01-03T04:00:15.464Z,14.18
2023-01-03T04:02:47.105Z,12.55
2023-01-03T04:05:17.939Z,14.20
2023-01-03T04:07:44.590Z,13.10
2023-01-03T04:10:12.553Z,13.48
2023-01-03T04:12:39.315Z,13.68
2023-01-03T04:15:07.047Z,13.80
2023-01-03T04:17:33.651Z,13.43
2023-01-03T04:20:00.123Z,13.68
2023-01-03T04:22:26.527Z,13.55
2023-01-03T04:24:52.936Z,14.25
2023-01-03T04:27:19.336Z,15.27
2023-01-03T04:29:45.855Z,14.60
2023-01-03T04:32:12.433Z,15.68
2023-01-03T04:34:39.002Z,15.02
2023-01-03T04:37:05.568Z,15.43
2023-01-03T04:39:32.033Z,15.38
2023-01-03T04:42:01.427Z,14.32
2023-01-03T04:44:28.347Z,15.60
2023-01-03T04:46:54.765Z,14.75
2023-01-03T04:49:21.302Z,14.60
2023-01-03T04:51:47.717Z,14.25
2023-01-03T04:54:14.277Z,15.70
2023-01-03T04:56:40.667Z,15.23
2023-01-03T04:59:07.387Z,14.57
2023-01-03T05:01:34.000Z,14.50
2023-01-03T05:04:01.942Z,14.60
2023-01-03T05:06:29.100Z,14.57
2023-01-03T05:08:56.361Z,14.27
2023-01-03T05:11:23.301Z,14.82
2023-01-03T05:13:49.789Z,14.50
2023-01-03T05:16:17.110Z,14.93
2023-01-03T05:18:43.632Z,15.23
2023-01-03T05:21:35.044Z,14.35
2023-01-03T05:24:21.043Z,13.57
2023-01-03T05:26:47.818Z,15.38
2023-01-03T05:29:17.608Z,14.38
2023-01-03T05:31:44.215Z,14.60
2023-01-03T05:34:10.697Z,15.98
2023-01-03T05:36:37.243Z,16.15
2023-01-03T05:39:04.867Z,15.50
2023-01-03T05:41:50.409Z,16.75
2023-01-03T05:44:16.908Z,14.80
2023-01-03T05:46:43.348Z,17.55
2023-01-03T05:49:09.855Z,17.20
2023-01-03T05:51:36.218Z,16.95
2023-01-03T05:54:02.661Z,15.70
2023-01-03T05:56:31.088Z,17.10
2023-01-03T05:58:58.082Z,18.00
2023-01-03T06:01:28.718Z,17.35
2023-01-03T06:03:55.761Z,17.13
2023-01-03T06:06:22.307Z,17.30
2023-01-03T06:08:49.192Z,18.65
2023-01-03T06:11:16.710Z,17.63
2023-01-03T06:13:43.508Z,19.27
2023-01-03T06:16:34.236Z,17.95
2023-01-03T06:19:01.522Z,17.60
2023-01-03T06:21:28.182Z,19.02
2023-01-03T06:23:54.731Z,19.20
2023-01-03T06:26:23.511Z,20.38
2023-01-03T06:28:51.000Z,19.17
2023-01-03T06:31:18.264Z,18.58
2023-01-03T06:33:45.025Z,18.85
2023-01-03T06:36:13.951Z,18.60
2023-01-03T06:38:41.056Z,18.95
2023-01-03T06:41:08.008Z,24.00
2023-01-03T06:43:35.233Z,21.27
2023-01-03T06:46:20.226Z,21.63
2023-01-03T06:49:05.580Z,22.10
2023-01-03T06:51:51.550Z,18.95
2023-01-03T06:54:38.004Z,17.42
2023-01-03T06:57:05.471Z,18.00
2023-01-03T06:59:31.957Z,17.45
2023-01-03T07:01:58.661Z,17.67
2023-01-03T07:04:26.593Z,17.38
2023-01-03T07:06:53.114Z,17.73
2023-01-03T07:09:19.885Z,17.95
2023-01-03T07:11:46.356Z,17.05
2023-01-03T07:14:13.176Z,18.40
2023-01-03T07:16:45.386Z,18.33
2023-01-03T07:19:14.971Z,17.15
2023-01-03T07:21:41.998Z,17.23
2023-01-03T07:24:11.723Z,16.60
2023-01-03T07:26:38.637Z,16.65
2023-01-03T07:29:07.380Z,15.75
2023-01-03T07:31:34.285Z,15.85
2023-01-03T07:34:01.291Z,16.50
2023-01-03T07:36:27.851Z,16.70
2023-01-03T07:38:55.834Z,15.73
2023-01-03T07:41:22.969Z,18.20
2023-01-03T07:43:49.849Z,15.80
2023-01-03T07:46:19.292Z,15.30
2023-01-03T07:48:48.291Z,16.25
2023-01-03T07:51:16.760Z,17.13
2023-01-03T07:53:44.356Z,15.48
2023-01-03T07:56:15.819Z,18.05
2023-01-03T07:58:44.285Z,15.18
2023-01-03T08:01:14.238Z,16.98
2023-01-03T08:03:41.143Z,16.75
2023-01-03T08:06:12.907Z,16.02
2023-01-03T08:08:39.870Z,16.83
2023-01-03T08:11:25.941Z,16.65
2023-01-03T08:13:52.964Z,17.17
2023-01-03T08:16:19.514Z,17.35
2023-01-03T08:18:46.047Z,17.15
2023-01-03T08:21:14.824Z,16.67
2023-01-03T08:23:42.134Z,17.08
2023-01-03T08:26:14.258Z,18.08
2023-01-03T08:28:42.515Z,18.10
2023-01-03T08:31:16.805Z,20.42
2023-01-03T08:33:48.791Z,19.67
2023-01-03T08:36:15.460Z,19.75
2023-01-03T08:38:48.902Z,20.02
2023-01-03T08:41:19.703Z,19.75
2023-01-03T08:43:48.103Z,20.30
2023-01-03T08:46:16.324Z,20.88
2023-01-03T08:48:43.804Z,20.90
2023-01-03T08:51:10.787Z,19.15
2023-01-03T08:53:37.365Z,22.77
2023-01-03T08:56:04.094Z,22.00
2023-01-03T08:58:30.498Z,21.27
2023-01-03T09:01:01.440Z,22.65
2023-01-03T09:03:31.023Z,20.95
2023-01-03T09:06:04.474Z,20.25
2023-01-03T09:08:32.862Z,22.38
2023-01-03T09:11:03.737Z,21.13
2023-01-03T09:13:30.354Z,20.85
2023-01-03T09:16:01.903Z,21.40
2023-01-03T09:18:28.370Z,19.30
2023-01-03T09:20:54.763Z,21.65
2023-01-03T09:23:21.263Z,21.15
2023-01-03T09:25:47.947Z,20.02
2023-01-03T09:28:14.378Z,19.65
2023-01-03T09:30:41.031Z,20.35
2023-01-03T09:33:10.476Z,20.13
2023-01-03T09:35:37.762Z,19.57
2023-01-03T09:38:04.447Z,21.38
2023-01-03T09:40:32.694Z,20.52
2023-01-03T09:43:19.814Z,20.52
2023-01-03T09:45:52.789Z,20.48
2023-01-03T09:48:29.659Z,20.52
2023-01-03T09:51:18.426Z,20.48
2023-01-03T09:54:01.036Z,21.00
2023-01-03T09:56:46.178Z,21.50
2023-01-03T09:59:36.615Z,21.33
2023-01-03T10:02:59.512Z,21.20
2023-01-03T10:05:41.222Z,20.02
2023-01-03T10:08:19.843Z,21.30
2023-01-03T10:11:07.876Z,21.50
2023-01-03T10:13:48.223Z,21.08
2023-01-03T10:16:49.413Z,20.15
2023-01-03T10:19:28.191Z,20.88
2023-01-03T10:22:12.883Z,21.05
2023-01-03T10:24:50.160Z,19.67
2023-01-03T10:27:22.869Z,19.48
2023-01-03T10:29:55.545Z,19.27
2023-01-03T10:32:30.531Z,20.83
2023-01-03T10:35:28.091Z,20.33
2023-01-03T10:37:56.514Z,19.58
2023-01-03T10:40:41.680Z,19.73
2023-01-03T10:43:10.455Z,20.17
2023-01-03T10:45:51.046Z,21.02
2023-01-03T10:48:17.863Z,19.40
2023-01-03T10:50:44.503Z,19.50
2023-01-03T10:53:14.231Z,19.77
2023-01-03T10:55:52.230Z,20.45
2023-01-03T10:58:28.134Z,21.10
2023-01-03T11:01:19.982Z,19.35
2023-01-03T11:04:24.456Z,19.47
2023-01-03T11:07:04.064Z,20.02
2023-01-03T11:09:53.264Z,19.23
2023-01-03T11:12:23.561Z,18.63
2023-01-03T11:17:21.035Z,18.80
2023-01-03T11:19:47.595Z,18.10
2023-01-03T11:22:38.081Z,19.27
2023-01-03T11:25:19.896Z,18.85
2023-01-03T11:27:55.699Z,17.48
2023-01-03T11:30:53.177Z,17.67
2023-01-03T11:33:54.353Z,17.13
2023-01-03T11:36:39.526Z,17.40
2023-01-03T11:39:26.592Z,16.42
2023-01-03T11:42:05.336Z,15.80
2023-01-03T11:44:53.779Z,15.70
2023-01-03T11:47:58.571Z,16.17
2023-01-03T11:50:36.056Z,15.70
2023-01-03T11:53:04.993Z,16.13
2023-01-03T11:55:49.861Z,14.65
2023-01-03T11:58:20.745Z,15.45
2023-01-03T12:01:35.429Z,15.50
2023-01-03T12:04:24.508Z,13.13
2023-01-03T12:07:45.905Z,13.73
2023-01-03T12:10:01.936Z,14.68
2023-01-03T12:12:50.202Z,13.18
2023-01-03T12:15:16.560Z,13.85
2023-01-03T12:17:59.100Z,14.05
2023-01-03T12:20:34.292Z,13.88
2023-01-03T12:23:15.727Z,13.85
2023-01-03T12:25:51.327Z,13.27
2023-01-03T12:28:36.473Z,13.20
2023-01-03T12:31:37.161Z,12.73
2023-01-03T12:34:25.409Z,13.15
2023-01-03T12:37:04.428Z,13.27
2023-01-03T12:39:57.736Z,14.02
2023-01-03T12:42:46.545Z,13.52
2023-01-03T12:45:29.614Z,13.68
2023-01-03T12:48:13.757Z,13.80
2023-01-03T12:50:47.560Z,14.63
2023-01-03T12:53:18.978Z,13.73
2023-01-03T12:55:48.302Z,13.57
2023-01-03T12:58:40.006Z,13.73
2023-01-03T13:01:10.503Z,13.15
2023-01-03T13:03:44.405Z,13.85
2023-01-03T13:06:18.836Z,14.07
2023-01-03T13:08:50.817Z,13.70
2023-01-03T13:11:41.988Z,14.07
2023-01-03T13:14:53.775Z,14.18
2023-01-03T13:17:25.998Z,12.75
2023-01-03T13:19:57.809Z,13.48
2023-01-03T13:22:45.290Z,14.05
2023-01-03T13:25:26.779Z,14.65
2023-01-03T13:27:55.995Z,13.85
2023-01-03T13:30:34.583Z,13.40
2023-01-03T13:33:05.775Z,14.20
2023-01-03T13:35:35.869Z,13.73
2023-01-03T13:38:24.548Z,16.60
2023-01-03T13:43:47.275Z,17.38
2023-01-03T13:46:25.633Z,16.88
2023-01-03T13:49:23.737Z,16.58
2023-01-03T13:51:58.838Z,17.02
2023-01-03T13:54:35.154Z,17.13
2023-01-03T13:57:05.034Z,17.08
2023-01-03T13:59:47.414Z,15.73
2023-01-03T14:02:51.249Z,16.73
2023-01-03T14:05:26.929Z,17.50
2023-01-03T14:07:57.922Z,17.77
2023-01-03T14:10:43.094Z,17.70
2023-01-03T14:13:18.536Z,18.15
2023-01-03T14:15:47.031Z,19.52
2023-01-03T14:18:24.170Z,17.42
2023-01-03T14:20:57.092Z,16.85
2023-01-03T14:26:16.098Z,17.58
2023-01-03T14:28:48.387Z,18.20
2023-01-03T14:31:21.867Z,17.60
2023-01-03T14:33:57.935Z,18.08
2023-01-03T14:36:25.701Z,16.65
2023-01-03T14:38:54.934Z,17.02
2023-01-03T14:41:43.148Z,17.40
2023-01-03T14:44:09.532Z,17.42
2023-01-03T14:46:37.906Z,17.55
2023-01-03T14:49:21.267Z,17.27
2023-01-03T14:51:48.344Z,17.60
2023-01-03T14:54:17.816Z,17.52
2023-01-03T14:56:45.777Z,17.65
2023-01-03T14:59:19.559Z,16.77
2023-01-03T15:01:46.612Z,17.13
2023-01-03T15:04:14.976Z,17.25
2023-01-03T15:07:09.616Z,17.40
2023-01-03T15:09:39.702Z,17.30
2023-01-03T15:12:06.604Z,17.30
2023-01-03T15:14:36.063Z,17.60
2023-01-03T15:17:11.739Z,18.75
2023-01-03T15:19:41.221Z,19.23
2023-01-03T15:22:18.650Z,19.27
2023-01-03T15:24:47.650Z,18.65
2023-01-03T15:27:38.645Z,19.08
2023-01-03T15:30:23.737Z,20.67
2023-01-03T15:32:53.155Z,47.50
2023-01-03T15:35:40.596Z,21.50
2023-01-03T15:38:17.148Z,20.38
2023-01-03T15:40:47.352Z,21.73
2023-01-03T15:43:21.672Z,19.33
2023-01-03T15:46:17.820Z,30.63
2023-01-03T15:48:54.873Z,23.55
2023-01-03T15:51:21.417Z,21.98
2023-01-03T15:53:48.084Z,22.92
2023-01-03T15:57:02.361Z,21.30
2023-01-03T15:59:31.878Z,23.40
2023-01-03T16:01:58.593Z,24.70
2023-01-03T16:04:28.685Z,23.85
2023-01-03T16:06:56.000Z,67.80
2023-01-03T16:09:22.454Z,30.83
2023-01-03T16:11:55.417Z,27.05
2023-01-03T16:14:27.720Z,26.85
2023-01-03T16:16:56.845Z,28.75
2023-01-03T16:19:26.134Z,27.95
2023-01-03T16:22:32.601Z,28.75
2023-01-03T16:24:41.675Z,31.95
2023-01-03T16:27:20.941Z,29.95
2023-01-03T16:29:47.588Z,28.70
2023-01-03T16:32:21.924Z,28.95
2023-01-03T16:34:49.578Z,29.58
2023-01-03T16:37:16.530Z,28.35
2023-01-03T16:39:47.909Z,32.10
2023-01-03T16:42:15.328Z,28.27
2023-01-03T16:44:46.788Z,29.75
2023-01-03T16:47:25.726Z,30.27
2023-01-03T16:49:58.516Z,30.10
2023-01-03T16:52:34.099Z,32.00
2023-01-03T16:55:04.188Z,31.23
2023-01-03T16:57:30.833Z,33.63
2023-01-03T16:59:57.416Z,31.58
2023-01-03T17:02:24.195Z,31.85
2023-01-03T17:04:50.693Z,32.00
2023-01-03T17:07:21.359Z,35.17
2023-01-03T17:09:50.818Z,34.42
2023-01-03T17:12:22.570Z,32.42
2023-01-03T17:14:49.944Z,33.65
2023-01-03T17:17:18.139Z,34.20
2023-01-03T17:20:03.386Z,34.22
2023-01-03T17:22:31.372Z,33.50
2023-01-03T17:24:57.813Z,36.33
2023-01-03T17:27:32.518Z,33.92
2023-01-03T17:30:04.457Z,35.25
2023-01-03T17:32:31.429Z,36.35
2023-01-03T17:34:58.071Z,34.00
2023-01-03T17:37:25.599Z,34.47
2023-01-03T17:39:57.718Z,35.03
2023-01-03T17:42:26.508Z,37.05
2023-01-03T17:45:12.166Z,38.45
2023-01-03T17:48:02.005Z,35.47
2023-01-03T17:50:32.521Z,36.17
2023-01-03T17:53:01.284Z,38.80
2023-01-03T17:55:29.936Z,36.33
2023-01-03T17:57:59.575Z,38.33
2023-01-03T18:00:28.117Z,37.90
2023-01-03T18:02:55.719Z,34.92
2023-01-03T18:05:28.603Z,33.15
2023-01-03T18:07:57.340Z,33.50
2023-01-03T18:10:45.814Z,40.20
2023-01-03T18:13:22.061Z,36.33
2023-01-03T18:15:49.289Z,41.42
2023-01-03T18:18:18.173Z,35.72
2023-01-03T18:20:45.331Z,51.00
2023-01-03T18:23:31.562Z,36.97
2023-01-03T18:26:10.867Z,44.63
2023-01-03T18:28:37.294Z,38.70
2023-01-03T18:31:04.082Z,39.38
2023-01-03T18:33:30.611Z,42.08
2023-01-03T18:35:57.205Z,39.30
2023-01-03T18:38:41.360Z,41.40
2023-01-03T18:41:17.768Z,40.28
2023-01-03T18:43:44.191Z,38.55
2023-01-03T18:46:14.947Z,38.72
2023-01-03T18:48:41.388Z,40.47
2023-01-03T18:51:15.110Z,40.33
2023-01-03T18:53:43.869Z,37.03
2023-01-03T18:56:46.095Z,38.17
2023-01-03T18:59:27.785Z,36.85
2023-01-03T19:01:55.107Z,37.95
2023-01-03T19:04:21.629Z,37.40
2023-01-03T19:06:51.919Z,40.08
2023-01-03T19:11:49.444Z,40.05
2023-01-03T19:14:16.192Z,38.67
2023-01-03T19:16:42.875Z,36.38
2023-01-03T19:19:10.301Z,36.10
2023-01-03T19:21:42.361Z,39.75
2023-01-03T19:24:38.492Z,35.20
2023-01-03T19:27:16.431Z,36.30
2023-01-03T19:29:43.768Z,36.13
2023-01-03T19:32:19.152Z,37.90
2023-01-03T19:34:45.624Z,34.33
2023-01-03T19:37:12.441Z,33.75
2023-01-03T19:39:38.977Z,37.30
2023-01-03T19:42:30.232Z,34.45
2023-01-03T19:44:59.233Z,33.20
2023-01-03T19:47:25.656Z,31.23
2023-01-03T19:49:52.124Z,36.38
2023-01-03T19:52:18.727Z,30.58
2023-01-03T19:54:45.220Z,31.05
2023-01-03T19:57:21.390Z,30.35
2023-01-03T19:59:52.607Z,29.17
2023-01-03T20:02:26.058Z,31.77
2023-01-03T20:04:52.929Z,29.42
2023-01-03T20:07:19.464Z,29.05
2023-01-03T20:09:45.864Z,31.05
2023-01-03T20:12:21.653Z,29.08
2023-01-03T20:14:51.360Z,30.52
2023-01-03T20:17:25.157Z,30.15
2023-01-03T20:19:52.747Z,32.40
2023-01-03T20:25:32.263Z,29.90
2023-01-03T20:28:00.286Z,28.38
2023-01-03T20:30:29.522Z,30.58
2023-01-03T20:32:56.444Z,29.10
2023-01-03T20:36:08.313Z,30.13
2023-01-03T20:38:11.945Z,30.23
2023-01-03T20:40:39.162Z,30.23
2023-01-03T20:43:05.827Z,27.00
2023-01-03T20:45:32.706Z,28.25
2023-01-03T20:47:59.332Z,30.65
2023-01-03T20:50:27.957Z,29.58
2023-01-03T20:52:55.200Z,29.85
2023-01-03T20:55:23.816Z,30.02
2023-01-03T20:57:51.133Z,29.83
2023-01-03T21:00:32.319Z,27.67
2023-01-03T21:02:58.947Z,27.45
2023-01-03T21:05:25.882Z,26.00
2023-01-03T21:08:10.953Z,26.48
2023-01-03T21:10:42.729Z,25.58
2023-01-03T21:13:10.315Z,24.17
2023-01-03T21:15:38.073Z,25.48
2023-01-03T21:18:06.111Z,24.00
2023-01-03T21:20:33.134Z,25.95
2023-01-03T21:22:59.786Z,25.10
2023-01-03T21:25:35.045Z,23.55
2023-01-03T21:28:02.665Z,24.45
2023-01-03T21:30:31.486Z,24.42
2023-01-03T21:32:59.501Z,22.95
2023-01-03T21:35:26.459Z,22.77
2023-01-03T21:37:53.978Z,21.92
2023-01-03T21:40:26.463Z,22.90
2023-01-03T21:43:05.605Z,22.20
2023-01-03T21:45:43.906Z,24.00
2023-01-03T21:48:15.721Z,23.25
2023-01-03T21:50:47.192Z,21.88
2023-01-03T21:53:17.845Z,21.50
2023-01-03T21:55:44.446Z,19.52
2023-01-03T21:58:14.042Z,19.70
2023-01-03T22:00:41.423Z,19.88
2023-01-03T22:03:29.967Z,20.38
2023-01-03T22:06:13.679Z,20.23
2023-01-03T22:08:40.687Z,19.23
2023-01-03T22:11:07.906Z,18.35
2023-01-03T22:13:35.050Z,17.63
2023-01-03T22:16:09.182Z,17.63
2023-01-03T22:18:36.663Z,17.23
2023-01-03T22:21:08.188Z,17.27
2023-01-03T22:23:35.892Z,17.15
2023-01-03T22:26:07.058Z,17.25
2023-01-03T22:28:51.501Z,16.35
2023-01-03T22:31:20.371Z,15.57
2023-01-03T22:33:48.635Z,17.00
2023-01-03T22:36:15.683Z,15.80
2023-01-03T22:38:43.069Z,15.85
2023-01-03T22:41:13.530Z,15.98
2023-01-03T22:43:40.477Z,15.48
2023-01-03T22:46:11.897Z,15.07
2023-01-03T22:48:38.629Z,14.73
2023-01-03T22:51:07.739Z,15.68
2023-01-03T22:53:35.544Z,14.63
2023-01-03T22:56:11.357Z,14.27
2023-01-03T22:58:38.408Z,15.50
2023-01-03T23:01:10.503Z,13.40
2023-01-03T23:03:37.065Z,14.65
2023-01-03T23:06:06.106Z,13.07
2023-01-03T23:08:34.029Z,13.02
2023-01-03T23:11:34.678Z,12.05
2023-01-03T23:14:04.596Z,11.55
2023-01-03T23:16:32.611Z,11.63
2023-01-03T23:19:08.238Z,11.15
2023-01-03T23:21:35.021Z,11.43
2023-01-03T23:24:01.578Z,11.23
2023-01-03T23:26:28.062Z,11.30
2023-01-03T23:28:59.912Z,10.90
2023-01-03T23:31:27.755Z,10.55
2023-01-03T23:33:55.520Z,10.38
2023-01-03T23:36:21.993Z,10.63
2023-01-03T23:38:48.704Z,10.43
2023-01-03T23:41:15.140Z,10.02
2023-01-03T23:43:41.541Z,10.75
2023-01-03T23:46:08.050Z,9.82
2023-01-03T23:48:34.716Z,9.90
2023-01-03T23:51:06.355Z,9.90
2023-01-03T23:53:37.404Z,10.38
2023-01-03T23:56:06.353Z,9.98
2023-01-03T23:58:33.225Z,9.35
